sensor_id;sensor_type;location;lat;lon;timestamp;P1;durP1;ratioP1;P2;durP2;ratioP2
75912;SDS011;64592;52.168;21.040;2024-03-08T00:03:33;37.38;;;17.75;;
75912;SDS011;64592;52.168;21.040;2024-03-08T00:08:36;33.90;;;15.48;;
75912;SDS011;64592;52.168;21.040;2024-03-08T00:13:38;38.95;;;16.75;;
75912;SDS011;64592;52.168;21.040;2024-03-08T00:18:39;30.92;;;16.85;;
75912;SDS011;64592;52.168;21.040;2024-03-08T00:23:43;31.60;;;15.25;;
75912;SDS011;64592;52.168;21.040;2024-03-08T00:28:44;31.60;;;14.95;;
75912;SDS011;64592;52.168;21.040;2024-03-08T00:33:46;35.03;;;17.38;;
75912;SDS011;64592;52.168;21.040;2024-03-08T00:38:49;36.22;;;15.30;;
75912;SDS011;64592;52.168;21.040;2024-03-08T00:43:51;28.73;;;15.70;;
75912;SDS011;64592;52.168;21.040;2024-03-08T00:48:53;30.27;;;15.95;;
75912;SDS011;64592;52.168;21.040;2024-03-08T00:53:57;32.60;;;15.55;;
75912;SDS011;64592;52.168;21.040;2024-03-08T00:58:59;31.98;;;15.30;;
75912;SDS011;64592;52.168;21.040;2024-03-08T01:04:00;31.33;;;17.35;;
75912;SDS011;64592;52.168;21.040;2024-03-08T01:09:03;26.40;;;15.25;;
75912;SDS011;64592;52.168;21.040;2024-03-08T01:14:07;29.02;;;14.45;;
75912;SDS011;64592;52.168;21.040;2024-03-08T01:19:08;35.00;;;15.75;;
75912;SDS011;64592;52.168;21.040;2024-03-08T01:24:11;34.00;;;17.23;;
75912;SDS011;64592;52.168;21.040;2024-03-08T01:29:13;33.42;;;16.98;;
75912;SDS011;64592;52.168;21.040;2024-03-08T01:34:14;30.05;;;15.07;;
75912;SDS011;64592;52.168;21.040;2024-03-08T01:39:17;42.03;;;17.45;;
75912;SDS011;64592;52.168;21.040;2024-03-08T01:44:20;30.85;;;15.27;;
75912;SDS011;64592;52.168;21.040;2024-03-08T01:49:22;32.38;;;16.17;;
75912;SDS011;64592;52.168;21.040;2024-03-08T01:54:26;36.45;;;15.50;;
75912;SDS011;64592;52.168;21.040;2024-03-08T01:59:28;39.75;;;18.15;;
75912;SDS011;64592;52.168;21.040;2024-03-08T02:04:30;38.67;;;16.40;;
75912;SDS011;64592;52.168;21.040;2024-03-08T02:09:34;38.97;;;18.40;;
75912;SDS011;64592;52.168;21.040;2024-03-08T02:14:36;37.45;;;17.77;;
75912;SDS011;64592;52.168;21.040;2024-03-08T02:19:38;39.67;;;19.08;;
75912;SDS011;64592;52.168;21.040;2024-03-08T02:24:41;39.22;;;18.23;;
75912;SDS011;64592;52.168;21.040;2024-03-08T02:29:42;43.90;;;20.73;;
75912;SDS011;64592;52.168;21.040;2024-03-08T02:34:45;39.38;;;18.05;;
75912;SDS011;64592;52.168;21.040;2024-03-08T02:39:48;40.15;;;17.33;;
75912;SDS011;64592;52.168;21.040;2024-03-08T02:44:50;37.55;;;19.17;;
75912;SDS011;64592;52.168;21.040;2024-03-08T02:49:51;41.47;;;20.65;;
75912;SDS011;64592;52.168;21.040;2024-03-08T02:54:54;41.03;;;18.92;;
75912;SDS011;64592;52.168;21.040;2024-03-08T02:59:56;44.45;;;18.40;;
75912;SDS011;64592;52.168;21.040;2024-03-08T03:04:59;43.75;;;18.42;;
75912;SDS011;64592;52.168;21.040;2024-03-08T03:10:07;38.53;;;19.00;;
75912;SDS011;64592;52.168;21.040;2024-03-08T03:15:12;43.42;;;19.65;;
75912;SDS011;64592;52.168;21.040;2024-03-08T03:20:14;40.30;;;18.17;;
75912;SDS011;64592;52.168;21.040;2024-03-08T03:25:24;37.67;;;17.67;;
75912;SDS011;64592;52.168;21.040;2024-03-08T03:30:29;44.22;;;18.90;;
75912;SDS011;64592;52.168;21.040;2024-03-08T03:35:33;44.22;;;20.73;;
75912;SDS011;64592;52.168;21.040;2024-03-08T03:40:37;35.83;;;17.75;;
75912;SDS011;64592;52.168;21.040;2024-03-08T03:45:39;36.72;;;17.88;;
75912;SDS011;64592;52.168;21.040;2024-03-08T03:50:41;40.72;;;18.45;;
75912;SDS011;64592;52.168;21.040;2024-03-08T03:55:45;39.97;;;20.58;;
75912;SDS011;64592;52.168;21.040;2024-03-08T04:00:47;42.95;;;17.35;;
75912;SDS011;64592;52.168;21.040;2024-03-08T04:05:48;40.67;;;20.05;;
75912;SDS011;64592;52.168;21.040;2024-03-08T04:10:52;45.53;;;19.40;;
75912;SDS011;64592;52.168;21.040;2024-03-08T04:15:54;46.08;;;19.45;;
75912;SDS011;64592;52.168;21.040;2024-03-08T04:20:55;46.53;;;19.25;;
75912;SDS011;64592;52.168;21.040;2024-03-08T04:25:58;41.00;;;20.38;;
75912;SDS011;64592;52.168;21.040;2024-03-08T04:31:00;39.53;;;19.20;;
75912;SDS011;64592;52.168;21.040;2024-03-08T04:36:01;36.25;;;19.70;;
75912;SDS011;64592;52.168;21.040;2024-03-08T04:41:05;42.00;;;17.92;;
75912;SDS011;64592;52.168;21.040;2024-03-08T04:46:07;46.42;;;20.65;;
75912;SDS011;64592;52.168;21.040;2024-03-08T04:51:09;49.83;;;21.13;;
75912;SDS011;64592;52.168;21.040;2024-03-08T04:56:12;38.75;;;19.92;;
75912;SDS011;64592;52.168;21.040;2024-03-08T05:01:14;45.72;;;18.75;;
75912;SDS011;64592;52.168;21.040;2024-03-08T05:06:15;38.80;;;19.08;;
75912;SDS011;64592;52.168;21.040;2024-03-08T05:11:18;37.58;;;19.33;;
75912;SDS011;64592;52.168;21.040;2024-03-08T05:16:20;46.90;;;19.75;;
75912;SDS011;64592;52.168;21.040;2024-03-08T05:21:24;43.38;;;20.08;;
75912;SDS011;64592;52.168;21.040;2024-03-08T05:26:27;48.15;;;19.60;;
75912;SDS011;64592;52.168;21.040;2024-03-08T05:31:31;46.58;;;19.60;;
75912;SDS011;64592;52.168;21.040;2024-03-08T05:36:44;42.40;;;19.13;;
75912;SDS011;64592;52.168;21.040;2024-03-08T05:41:47;41.55;;;19.20;;
75912;SDS011;64592;52.168;21.040;2024-03-08T05:46:49;42.85;;;20.42;;
75912;SDS011;64592;52.168;21.040;2024-03-08T05:56:55;41.17;;;17.50;;
75912;SDS011;64592;52.168;21.040;2024-03-08T06:01:57;40.97;;;20.17;;
75912;SDS011;64592;52.168;21.040;2024-03-08T06:06:59;45.30;;;20.27;;
75912;SDS011;64592;52.168;21.040;2024-03-08T06:12:05;52.45;;;22.50;;
75912;SDS011;64592;52.168;21.040;2024-03-08T06:17:07;45.25;;;21.73;;
75912;SDS011;64592;52.168;21.040;2024-03-08T06:22:08;51.65;;;22.63;;
75912;SDS011;64592;52.168;21.040;2024-03-08T06:27:12;49.70;;;21.52;;
75912;SDS011;64592;52.168;21.040;2024-03-08T06:32:14;45.72;;;21.10;;
75912;SDS011;64592;52.168;21.040;2024-03-08T06:37:15;51.03;;;22.90;;
75912;SDS011;64592;52.168;21.040;2024-03-08T06:42:23;45.55;;;21.02;;
75912;SDS011;64592;52.168;21.040;2024-03-08T06:47:24;46.10;;;21.75;;
75912;SDS011;64592;52.168;21.040;2024-03-08T06:52:26;55.42;;;22.88;;
75912;SDS011;64592;52.168;21.040;2024-03-08T06:57:29;48.20;;;22.52;;
75912;SDS011;64592;52.168;21.040;2024-03-08T07:02:31;48.05;;;22.17;;
75912;SDS011;64592;52.168;21.040;2024-03-08T07:07:32;45.03;;;20.33;;
75912;SDS011;64592;52.168;21.040;2024-03-08T07:12:35;44.40;;;20.27;;
75912;SDS011;64592;52.168;21.040;2024-03-08T07:17:37;37.40;;;17.80;;
75912;SDS011;64592;52.168;21.040;2024-03-08T07:22:39;40.92;;;19.63;;
75912;SDS011;64592;52.168;21.040;2024-03-08T07:27:42;35.80;;;17.40;;
75912;SDS011;64592;52.168;21.040;2024-03-08T07:32:44;36.33;;;17.50;;
75912;SDS011;64592;52.168;21.040;2024-03-08T07:37:45;31.60;;;14.93;;
75912;SDS011;64592;52.168;21.040;2024-03-08T07:42:48;34.50;;;15.63;;
75912;SDS011;64592;52.168;21.040;2024-03-08T07:47:50;31.08;;;14.93;;
75912;SDS011;64592;52.168;21.040;2024-03-08T07:52:53;29.77;;;14.45;;
75912;SDS011;64592;52.168;21.040;2024-03-08T07:57:56;26.27;;;13.30;;
75912;SDS011;64592;52.168;21.040;2024-03-08T08:02:58;34.60;;;15.13;;
75912;SDS011;64592;52.168;21.040;2024-03-08T08:07:59;29.98;;;14.90;;
75912;SDS011;64592;52.168;21.040;2024-03-08T08:13:04;29.55;;;15.05;;
75912;SDS011;64592;52.168;21.040;2024-03-08T08:18:06;29.90;;;14.55;;
75912;SDS011;64592;52.168;21.040;2024-03-08T08:23:09;29.42;;;13.32;;
75912;SDS011;64592;52.168;21.040;2024-03-08T08:28:13;30.17;;;14.63;;
75912;SDS011;64592;52.168;21.040;2024-03-08T08:33:16;26.10;;;13.13;;
75912;SDS011;64592;52.168;21.040;2024-03-08T08:38:18;23.95;;;10.45;;
75912;SDS011;64592;52.168;21.040;2024-03-08T08:43:21;25.70;;;12.45;;
75912;SDS011;64592;52.168;21.040;2024-03-08T08:48:25;21.95;;;11.30;;
75912;SDS011;64592;52.168;21.040;2024-03-08T08:53:28;18.88;;;9.27;;
75912;SDS011;64592;52.168;21.040;2024-03-08T08:58:31;20.63;;;9.20;;
75912;SDS011;64592;52.168;21.040;2024-03-08T09:03:33;22.75;;;10.05;;
75912;SDS011;64592;52.168;21.040;2024-03-08T09:08:36;15.27;;;9.05;;
75912;SDS011;64592;52.168;21.040;2024-03-08T09:13:39;20.33;;;10.73;;
75912;SDS011;64592;52.168;21.040;2024-03-08T09:18:41;25.92;;;11.88;;
75912;SDS011;64592;52.168;21.040;2024-03-08T09:23:43;19.05;;;10.65;;
75912;SDS011;64592;52.168;21.040;2024-03-08T09:28:46;25.98;;;10.35;;
75912;SDS011;64592;52.168;21.040;2024-03-08T09:33:47;25.40;;;10.57;;
75912;SDS011;64592;52.168;21.040;2024-03-08T09:38:50;17.27;;;8.90;;
75912;SDS011;64592;52.168;21.040;2024-03-08T09:43:54;18.85;;;10.55;;
75912;SDS011;64592;52.168;21.040;2024-03-08T09:48:57;24.08;;;10.50;;
75912;SDS011;64592;52.168;21.040;2024-03-08T09:54:01;22.77;;;10.68;;
75912;SDS011;64592;52.168;21.040;2024-03-08T09:59:06;27.95;;;10.82;;
75912;SDS011;64592;52.168;21.040;2024-03-08T10:04:33;22.58;;;11.02;;
75912;SDS011;64592;52.168;21.040;2024-03-08T10:09:34;20.90;;;10.50;;
75912;SDS011;64592;52.168;21.040;2024-03-08T10:14:40;20.70;;;9.15;;
75912;SDS011;64592;52.168;21.040;2024-03-08T10:19:49;20.42;;;10.05;;
75912;SDS011;64592;52.168;21.040;2024-03-08T10:24:52;17.58;;;9.40;;
75912;SDS011;64592;52.168;21.040;2024-03-08T10:29:55;21.35;;;9.73;;
75912;SDS011;64592;52.168;21.040;2024-03-08T10:34:58;18.48;;;9.93;;
75912;SDS011;64592;52.168;21.040;2024-03-08T10:40:02;18.45;;;8.70;;
75912;SDS011;64592;52.168;21.040;2024-03-08T10:45:13;21.05;;;9.82;;
75912;SDS011;64592;52.168;21.040;2024-03-08T10:50:22;17.85;;;8.93;;
75912;SDS011;64592;52.168;21.040;2024-03-08T10:55:25;18.50;;;9.27;;
75912;SDS011;64592;52.168;21.040;2024-03-08T11:00:30;13.48;;;7.55;;
75912;SDS011;64592;52.168;21.040;2024-03-08T11:05:32;12.63;;;7.40;;
75912;SDS011;64592;52.168;21.040;2024-03-08T11:10:45;15.85;;;7.68;;
75912;SDS011;64592;52.168;21.040;2024-03-08T11:15:52;14.35;;;8.45;;
75912;SDS011;64592;52.168;21.040;2024-03-08T11:20:55;17.98;;;9.60;;
75912;SDS011;64592;52.168;21.040;2024-03-08T11:25:57;23.20;;;12.13;;
75912;SDS011;64592;52.168;21.040;2024-03-08T11:36:28;16.70;;;8.82;;
75912;SDS011;64592;52.168;21.040;2024-03-08T11:41:32;16.15;;;7.57;;
75912;SDS011;64592;52.168;21.040;2024-03-08T11:46:35;20.23;;;8.93;;
75912;SDS011;64592;52.168;21.040;2024-03-08T11:51:36;17.77;;;8.68;;
75912;SDS011;64592;52.168;21.040;2024-03-08T11:56:38;18.52;;;9.63;;
75912;SDS011;64592;52.168;21.040;2024-03-08T12:01:43;14.77;;;8.02;;
75912;SDS011;64592;52.168;21.040;2024-03-08T12:06:45;17.25;;;8.20;;
75912;SDS011;64592;52.168;21.040;2024-03-08T12:11:47;17.67;;;8.60;;
75912;SDS011;64592;52.168;21.040;2024-03-08T12:16:52;15.82;;;8.20;;
75912;SDS011;64592;52.168;21.040;2024-03-08T12:21:53;15.95;;;8.18;;
75912;SDS011;64592;52.168;21.040;2024-03-08T12:26:55;21.98;;;12.45;;
75912;SDS011;64592;52.168;21.040;2024-03-08T12:31:59;16.48;;;9.52;;
75912;SDS011;64592;52.168;21.040;2024-03-08T12:37:02;20.77;;;10.85;;
75912;SDS011;64592;52.168;21.040;2024-03-08T12:42:08;15.02;;;8.77;;
75912;SDS011;64592;52.168;21.040;2024-03-08T12:47:11;20.02;;;9.05;;
75912;SDS011;64592;52.168;21.040;2024-03-08T12:52:12;18.20;;;10.00;;
75912;SDS011;64592;52.168;21.040;2024-03-08T12:57:14;20.95;;;9.35;;
75912;SDS011;64592;52.168;21.040;2024-03-08T13:02:18;16.83;;;9.30;;
75912;SDS011;64592;52.168;21.040;2024-03-08T13:07:20;20.23;;;8.93;;
75912;SDS011;64592;52.168;21.040;2024-03-08T13:12:23;13.90;;;8.68;;
75912;SDS011;64592;52.168;21.040;2024-03-08T13:17:26;16.13;;;8.50;;
75912;SDS011;64592;52.168;21.040;2024-03-08T13:22:29;13.85;;;8.63;;
75912;SDS011;64592;52.168;21.040;2024-03-08T13:27:30;18.73;;;8.20;;
75912;SDS011;64592;52.168;21.040;2024-03-08T13:32:33;16.45;;;9.52;;
75912;SDS011;64592;52.168;21.040;2024-03-08T13:37:35;20.52;;;9.40;;
75912;SDS011;64592;52.168;21.040;2024-03-08T13:42:37;18.55;;;9.23;;
75912;SDS011;64592;52.168;21.040;2024-03-08T13:47:41;23.42;;;9.35;;
75912;SDS011;64592;52.168;21.040;2024-03-08T13:52:43;19.15;;;9.65;;
75912;SDS011;64592;52.168;21.040;2024-03-08T13:57:45;17.10;;;8.55;;
75912;SDS011;64592;52.168;21.040;2024-03-08T14:02:48;17.60;;;8.55;;
75912;SDS011;64592;52.168;21.040;2024-03-08T14:07:49;16.10;;;8.23;;
75912;SDS011;64592;52.168;21.040;2024-03-08T14:12:54;16.77;;;9.20;;
75912;SDS011;64592;52.168;21.040;2024-03-08T14:17:57;18.35;;;9.60;;
75912;SDS011;64592;52.168;21.040;2024-03-08T14:22:58;17.42;;;10.10;;
75912;SDS011;64592;52.168;21.040;2024-03-08T14:28:00;17.70;;;8.93;;
75912;SDS011;64592;52.168;21.040;2024-03-08T14:38:10;13.57;;;7.78;;
75912;SDS011;64592;52.168;21.040;2024-03-08T14:43:12;17.48;;;9.55;;
75912;SDS011;64592;52.168;21.040;2024-03-08T14:48:15;19.10;;;8.77;;
75912;SDS011;64592;52.168;21.040;2024-03-08T14:53:17;17.42;;;8.90;;
75912;SDS011;64592;52.168;21.040;2024-03-08T14:58:19;16.50;;;8.15;;
75912;SDS011;64592;52.168;21.040;2024-03-08T15:03:22;17.38;;;9.30;;
75912;SDS011;64592;52.168;21.040;2024-03-08T15:08:26;14.98;;;8.27;;
75912;SDS011;64592;52.168;21.040;2024-03-08T15:13:28;16.98;;;9.23;;
75912;SDS011;64592;52.168;21.040;2024-03-08T15:18:40;13.65;;;8.00;;
75912;SDS011;64592;52.168;21.040;2024-03-08T15:23:46;17.00;;;8.48;;
75912;SDS011;64592;52.168;21.040;2024-03-08T15:28:50;17.27;;;8.45;;
75912;SDS011;64592;52.168;21.040;2024-03-08T15:33:55;18.58;;;8.50;;
75912;SDS011;64592;52.168;21.040;2024-03-08T15:39:00;16.60;;;9.05;;
75912;SDS011;64592;52.168;21.040;2024-03-08T15:44:02;16.10;;;8.40;;
75912;SDS011;64592;52.168;21.040;2024-03-08T15:49:05;16.98;;;8.85;;
75912;SDS011;64592;52.168;21.040;2024-03-08T15:54:08;15.52;;;7.50;;
75912;SDS011;64592;52.168;21.040;2024-03-08T15:59:10;19.70;;;9.55;;
75912;SDS011;64592;52.168;21.040;2024-03-08T16:04:13;19.40;;;9.30;;
75912;SDS011;64592;52.168;21.040;2024-03-08T16:09:15;21.05;;;8.73;;
75912;SDS011;64592;52.168;21.040;2024-03-08T16:14:17;17.60;;;8.23;;
75912;SDS011;64592;52.168;21.040;2024-03-08T16:19:21;14.77;;;7.85;;
75912;SDS011;64592;52.168;21.040;2024-03-08T16:24:23;15.93;;;7.82;;
75912;SDS011;64592;52.168;21.040;2024-03-08T16:29:25;18.77;;;9.18;;
75912;SDS011;64592;52.168;21.040;2024-03-08T16:34:28;19.30;;;9.40;;
75912;SDS011;64592;52.168;21.040;2024-03-08T16:39:31;17.45;;;8.27;;
75912;SDS011;64592;52.168;21.040;2024-03-08T16:44:33;21.05;;;9.00;;
75912;SDS011;64592;52.168;21.040;2024-03-08T16:49:36;19.52;;;9.02;;
75912;SDS011;64592;52.168;21.040;2024-03-08T16:54:37;15.40;;;8.25;;
75912;SDS011;64592;52.168;21.040;2024-03-08T16:59:39;17.20;;;8.63;;
75912;SDS011;64592;52.168;21.040;2024-03-08T17:04:42;16.85;;;8.57;;
75912;SDS011;64592;52.168;21.040;2024-03-08T17:09:44;22.92;;;8.88;;
75912;SDS011;64592;52.168;21.040;2024-03-08T17:14:46;17.20;;;8.93;;
75912;SDS011;64592;52.168;21.040;2024-03-08T17:19:49;18.92;;;8.98;;
75912;SDS011;64592;52.168;21.040;2024-03-08T17:24:50;20.00;;;8.70;;
75912;SDS011;64592;52.168;21.040;2024-03-08T17:29:54;15.68;;;8.10;;
75912;SDS011;64592;52.168;21.040;2024-03-08T17:34:57;22.17;;;9.48;;
75912;SDS011;64592;52.168;21.040;2024-03-08T17:40:00;17.80;;;8.40;;
75912;SDS011;64592;52.168;21.040;2024-03-08T17:45:05;22.17;;;9.02;;
75912;SDS011;64592;52.168;21.040;2024-03-08T17:50:11;23.45;;;8.15;;
75912;SDS011;64592;52.168;21.040;2024-03-08T17:55:15;19.10;;;8.77;;
75912;SDS011;64592;52.168;21.040;2024-03-08T18:00:17;14.85;;;8.32;;
75912;SDS011;64592;52.168;21.040;2024-03-08T18:05:27;19.05;;;9.00;;
75912;SDS011;64592;52.168;21.040;2024-03-08T18:10:33;21.80;;;8.90;;
75912;SDS011;64592;52.168;21.040;2024-03-08T18:15:35;24.55;;;8.95;;
75912;SDS011;64592;52.168;21.040;2024-03-08T18:20:38;27.98;;;9.07;;
75912;SDS011;64592;52.168;21.040;2024-03-08T18:25:44;25.25;;;8.32;;
75912;SDS011;64592;52.168;21.040;2024-03-08T18:30:45;28.05;;;9.07;;
75912;SDS011;64592;52.168;21.040;2024-03-08T18:35:50;26.00;;;9.82;;
75912;SDS011;64592;52.168;21.040;2024-03-08T18:40:54;22.52;;;9.40;;
75912;SDS011;64592;52.168;21.040;2024-03-08T18:45:58;17.80;;;8.63;;
75912;SDS011;64592;52.168;21.040;2024-03-08T18:51:02;22.13;;;8.98;;
75912;SDS011;64592;52.168;21.040;2024-03-08T18:56:05;21.77;;;9.65;;
75912;SDS011;64592;52.168;21.040;2024-03-08T19:01:08;19.67;;;9.35;;
75912;SDS011;64592;52.168;21.040;2024-03-08T19:06:11;20.77;;;9.77;;
75912;SDS011;64592;52.168;21.040;2024-03-08T19:11:17;20.77;;;9.48;;
75912;SDS011;64592;52.168;21.040;2024-03-08T19:16:19;22.92;;;10.48;;
75912;SDS011;64592;52.168;21.040;2024-03-08T19:21:22;24.88;;;10.13;;
75912;SDS011;64592;52.168;21.040;2024-03-08T19:26:24;21.63;;;9.23;;
75912;SDS011;64592;52.168;21.040;2024-03-08T19:31:26;20.52;;;10.52;;
75912;SDS011;64592;52.168;21.040;2024-03-08T19:36:30;24.48;;;10.93;;
75912;SDS011;64592;52.168;21.040;2024-03-08T19:41:32;30.02;;;11.68;;
75912;SDS011;64592;52.168;21.040;2024-03-08T19:46:33;20.65;;;9.57;;
75912;SDS011;64592;52.168;21.040;2024-03-08T19:51:42;28.45;;;10.35;;
75912;SDS011;64592;52.168;21.040;2024-03-08T19:56:44;24.83;;;10.70;;
75912;SDS011;64592;52.168;21.040;2024-03-08T20:01:46;22.73;;;10.10;;
75912;SDS011;64592;52.168;21.040;2024-03-08T20:06:49;26.42;;;11.00;;
75912;SDS011;64592;52.168;21.040;2024-03-08T20:11:51;19.92;;;9.88;;
75912;SDS011;64592;52.168;21.040;2024-03-08T20:16:53;22.83;;;11.57;;
75912;SDS011;64592;52.168;21.040;2024-03-08T20:21:57;19.98;;;10.38;;
75912;SDS011;64592;52.168;21.040;2024-03-08T20:26:59;23.55;;;9.70;;
75912;SDS011;64592;52.168;21.040;2024-03-08T20:32:03;20.17;;;9.25;;
75912;SDS011;64592;52.168;21.040;2024-03-08T20:37:06;20.45;;;9.52;;
75912;SDS011;64592;52.168;21.040;2024-03-08T20:42:09;23.63;;;11.18;;
75912;SDS011;64592;52.168;21.040;2024-03-08T20:47:11;19.38;;;11.80;;
75912;SDS011;64592;52.168;21.040;2024-03-08T20:52:14;29.83;;;12.32;;
75912;SDS011;64592;52.168;21.040;2024-03-08T20:57:16;24.45;;;10.90;;
75912;SDS011;64592;52.168;21.040;2024-03-08T21:02:17;34.45;;;12.70;;
75912;SDS011;64592;52.168;21.040;2024-03-08T21:07:20;20.17;;;11.00;;
75912;SDS011;64592;52.168;21.040;2024-03-08T21:12:22;20.45;;;11.23;;
75912;SDS011;64592;52.168;21.040;2024-03-08T21:17:23;26.80;;;11.85;;
75912;SDS011;64592;52.168;21.040;2024-03-08T21:22:27;25.92;;;12.65;;
75912;SDS011;64592;52.168;21.040;2024-03-08T21:27:29;28.27;;;11.40;;
75912;SDS011;64592;52.168;21.040;2024-03-08T21:32:31;26.40;;;11.68;;
75912;SDS011;64592;52.168;21.040;2024-03-08T21:37:34;31.35;;;14.70;;
75912;SDS011;64592;52.168;21.040;2024-03-08T21:42:36;23.42;;;13.90;;
75912;SDS011;64592;52.168;21.040;2024-03-08T21:47:38;29.30;;;14.10;;
75912;SDS011;64592;52.168;21.040;2024-03-08T21:52:41;29.42;;;13.20;;
75912;SDS011;64592;52.168;21.040;2024-03-08T21:57:43;27.23;;;12.68;;
75912;SDS011;64592;52.168;21.040;2024-03-08T22:02:46;30.25;;;13.38;;
75912;SDS011;64592;52.168;21.040;2024-03-08T22:07:50;30.77;;;11.93;;
75912;SDS011;64592;52.168;21.040;2024-03-08T22:12:54;33.17;;;13.13;;
75912;SDS011;64592;52.168;21.040;2024-03-08T22:17:56;27.73;;;12.23;;
75912;SDS011;64592;52.168;21.040;2024-03-08T22:23:00;28.50;;;13.23;;
75912;SDS011;64592;52.168;21.040;2024-03-08T22:28:01;33.25;;;13.20;;
75912;SDS011;64592;52.168;21.040;2024-03-08T22:33:04;27.30;;;13.13;;
75912;SDS011;64592;52.168;21.040;2024-03-08T22:38:10;27.25;;;12.63;;
75912;SDS011;64592;52.168;21.040;2024-03-08T22:43:11;27.30;;;11.93;;
75912;SDS011;64592;52.168;21.040;2024-03-08T22:48:13;27.77;;;12.38;;
75912;SDS011;64592;52.168;21.040;2024-03-08T22:53:16;27.50;;;13.15;;
75912;SDS011;64592;52.168;21.040;2024-03-08T22:58:18;23.20;;;12.57;;
75912;SDS011;64592;52.168;21.040;2024-03-08T23:03:20;24.15;;;12.18;;
75912;SDS011;64592;52.168;21.040;2024-03-08T23:08:24;28.88;;;12.05;;
75912;SDS011;64592;52.168;21.040;2024-03-08T23:13:29;24.20;;;11.00;;
75912;SDS011;64592;52.168;21.040;2024-03-08T23:18:34;29.45;;;12.27;;
75912;SDS011;64592;52.168;21.040;2024-03-08T23:23:37;26.55;;;11.93;;
75912;SDS011;64592;52.168;21.040;2024-03-08T23:28:39;34.67;;;12.68;;
75912;SDS011;64592;52.168;21.040;2024-03-08T23:33:41;29.98;;;12.85;;
75912;SDS011;64592;52.168;21.040;2024-03-08T23:38:47;29.73;;;12.52;;
75912;SDS011;64592;52.168;21.040;2024-03-08T23:43:50;33.30;;;14.45;;
75912;SDS011;64592;52.168;21.040;2024-03-08T23:48:53;25.15;;;11.57;;
75912;SDS011;64592;52.168;21.040;2024-03-08T23:53:56;24.52;;;11.75;;
75912;SDS011;64592;52.168;21.040;2024-03-08T23:58:57;39.80;;;13.70;;
